createdAt,value
2023-03-27T00:04:09.184Z,2.85
2023-03-27T00:09:09.971Z,2.03
2023-03-27T00:14:11.850Z,2.83
2023-03-27T00:19:13.886Z,5.18
2023-03-27T00:24:15.895Z,2.70
2023-03-27T00:29:16.859Z,6.22
2023-03-27T00:34:19.032Z,5.05
2023-03-27T00:39:20.691Z,4.40
2023-03-27T00:44:27.404Z,5.80
2023-03-27T00:49:34.888Z,6.45
2023-03-27T00:54:40.236Z,7.32
2023-03-27T00:59:43.367Z,11.88
2023-03-27T01:04:46.578Z,21.27
2023-03-27T01:09:47.863Z,16.23
2023-03-27T01:15:00.766Z,15.70
2023-03-27T01:20:41.143Z,20.25
2023-03-27T01:26:13.298Z,17.42
2023-03-27T01:31:34.515Z,9.75
2023-03-27T01:37:10.944Z,10.43
2023-03-27T01:42:21.247Z,15.85
2023-03-27T01:47:39.519Z,9.65
2023-03-27T01:52:42.708Z,18.55
2023-03-27T01:57:50.601Z,9.88
2023-03-27T02:02:56.810Z,14.90
2023-03-27T02:08:04.022Z,17.35
2023-03-27T02:13:10.256Z,13.02
2023-03-27T02:18:19.136Z,10.93
2023-03-27T02:23:23.061Z,18.25
2023-03-27T02:28:40.130Z,10.57
2023-03-27T02:33:56.180Z,14.45
2023-03-27T02:39:02.997Z,10.52
2023-03-27T02:44:14.586Z,18.83
2023-03-27T02:49:37.542Z,10.85
2023-03-27T02:54:43.714Z,13.10
2023-03-27T02:59:51.837Z,11.82
2023-03-27T03:04:59.118Z,10.45
2023-03-27T03:10:14.120Z,15.50
2023-03-27T03:15:16.678Z,11.43
2023-03-27T03:20:17.680Z,18.33
2023-03-27T03:25:19.846Z,14.70
2023-03-27T03:30:23.288Z,7.90
2023-03-27T03:35:34.865Z,13.00
2023-03-27T03:40:40.879Z,20.88
2023-03-27T03:45:42.937Z,14.02
2023-03-27T03:50:44.421Z,8.65
2023-03-27T03:55:45.810Z,21.30
2023-03-27T04:00:48.080Z,15.50
2023-03-27T04:06:11.471Z,9.27
2023-03-27T04:11:12.517Z,13.57
2023-03-27T04:16:30.883Z,19.63
2023-03-27T04:21:37.648Z,12.63
2023-03-27T04:26:39.197Z,11.25
2023-03-27T04:32:00.040Z,9.20
2023-03-27T04:37:16.075Z,11.02
2023-03-27T04:42:32.153Z,13.77
2023-03-27T04:47:37.804Z,8.50
2023-03-27T04:52:39.602Z,12.73
2023-03-27T04:57:47.013Z,9.65
2023-03-27T05:02:50.165Z,11.10
2023-03-27T05:07:58.048Z,8.40
2023-03-27T05:13:00.405Z,5.28
2023-03-27T05:18:02.798Z,8.20
2023-03-27T05:23:05.536Z,8.73
2023-03-27T05:28:06.313Z,10.48
2023-03-27T05:33:13.943Z,14.93
2023-03-27T05:38:15.498Z,8.88
2023-03-27T05:43:34.874Z,13.13
2023-03-27T05:48:38.600Z,6.97
2023-03-27T05:53:39.678Z,9.02
2023-03-27T05:58:52.246Z,8.23
2023-03-27T06:03:56.150Z,11.85
2023-03-27T06:09:05.337Z,9.52
2023-03-27T06:14:08.458Z,9.32
2023-03-27T06:19:29.665Z,13.48
2023-03-27T06:24:30.478Z,6.85
2023-03-27T06:29:33.448Z,6.20
2023-03-27T06:34:36.421Z,6.45
2023-03-27T06:39:50.579Z,4.93
2023-03-27T06:44:52.201Z,10.00
2023-03-27T06:50:14.593Z,5.63
2023-03-27T06:55:17.137Z,9.88
2023-03-27T07:00:29.097Z,8.43
2023-03-27T07:06:00.546Z,4.38
2023-03-27T07:11:12.014Z,3.88
2023-03-27T07:16:19.379Z,4.20
2023-03-27T07:21:21.499Z,3.75
2023-03-27T07:26:22.176Z,4.10
2023-03-27T07:31:42.364Z,2.33
2023-03-27T07:36:51.803Z,1.48
2023-03-27T07:41:52.877Z,2.88
2023-03-27T07:47:09.832Z,2.35
2023-03-27T07:52:13.247Z,4.07
2023-03-27T07:57:23.060Z,4.25
2023-03-27T08:02:27.385Z,1.40
2023-03-27T08:07:30.304Z,2.30
2023-03-27T08:12:34.079Z,6.75
2023-03-27T08:17:36.382Z,3.42
2023-03-27T08:22:39.497Z,2.05
2023-03-27T08:28:11.002Z,2.70
2023-03-27T08:33:15.109Z,2.20
2023-03-27T08:38:26.042Z,1.60
2023-03-27T08:43:51.813Z,1.33
2023-03-27T08:48:59.020Z,1.92
2023-03-27T08:54:08.477Z,1.65
2023-03-27T08:59:16.891Z,1.73
2023-03-27T09:04:26.485Z,3.13
2023-03-27T09:09:38.797Z,1.88
2023-03-27T09:14:49.669Z,3.55
2023-03-27T09:19:57.869Z,3.85
2023-03-27T09:25:08.383Z,2.42
2023-03-27T09:30:31.611Z,4.50
2023-03-27T09:36:04.913Z,2.95
2023-03-27T09:41:12.871Z,5.15
2023-03-27T09:46:19.993Z,2.88
2023-03-27T09:51:43.460Z,5.10
2023-03-27T09:57:01.910Z,2.88
2023-03-27T10:02:17.361Z,4.85
2023-03-27T10:07:25.283Z,3.72
2023-03-27T10:12:51.025Z,2.33
2023-03-27T10:17:52.222Z,2.85
2023-03-27T10:22:54.981Z,2.25
2023-03-27T10:28:14.134Z,5.72
2023-03-27T10:33:36.554Z,4.97
2023-03-27T10:39:14.723Z,5.03
2023-03-27T10:44:32.478Z,6.13
2023-03-27T10:49:39.055Z,4.22
2023-03-27T10:54:47.913Z,2.80
2023-03-27T10:59:56.195Z,3.97
2023-03-27T11:05:05.558Z,1.77
2023-03-27T11:10:15.715Z,5.72
2023-03-27T11:15:22.403Z,7.55
2023-03-27T11:20:33.076Z,3.90
2023-03-27T11:25:46.563Z,5.22
2023-03-27T11:30:56.958Z,8.63
2023-03-27T11:36:07.181Z,4.57
2023-03-27T11:41:17.643Z,2.33
2023-03-27T11:46:35.750Z,4.07
2023-03-27T11:51:51.688Z,2.42
2023-03-27T11:56:54.557Z,7.82
2023-03-27T12:02:46.515Z,5.13
2023-03-27T12:07:59.943Z,8.50
2023-03-27T12:13:28.833Z,4.07
2023-03-27T12:19:03.873Z,7.95
2023-03-27T12:24:28.321Z,6.55
2023-03-27T12:30:18.203Z,2.20
2023-03-27T12:35:24.471Z,3.55
2023-03-27T12:40:32.060Z,4.88
2023-03-27T12:45:47.480Z,4.32
2023-03-27T12:50:58.865Z,4.18
2023-03-27T12:56:30.832Z,7.07
2023-03-27T13:01:55.610Z,5.68
2023-03-27T13:07:07.058Z,4.68
2023-03-27T13:12:49.026Z,4.70
2023-03-27T13:18:01.583Z,9.05
2023-03-27T13:23:24.059Z,6.53
2023-03-27T13:28:35.526Z,5.45
2023-03-27T13:34:13.049Z,3.75
2023-03-27T13:39:24.494Z,4.40
2023-03-27T13:44:44.053Z,2.50
2023-03-27T13:50:02.764Z,4.05
2023-03-27T13:55:28.886Z,7.68
2023-03-27T14:01:17.148Z,4.90
2023-03-27T14:06:55.789Z,3.42
2023-03-27T14:12:08.640Z,2.75
2023-03-27T14:17:38.914Z,2.67
2023-03-27T14:22:47.652Z,5.88
2023-03-27T14:27:56.412Z,3.38
2023-03-27T14:33:08.056Z,0.98
2023-03-27T14:38:18.134Z,1.42
2023-03-27T14:43:22.243Z,2.83
2023-03-27T14:48:31.734Z,3.25
2023-03-27T14:53:36.632Z,4.15
2023-03-27T14:58:53.244Z,2.90
2023-03-27T15:03:54.988Z,3.80
2023-03-27T15:08:59.672Z,6.38
2023-03-27T15:14:26.570Z,3.83
2023-03-27T15:19:32.048Z,10.38
2023-03-27T15:24:41.416Z,3.05
2023-03-27T15:29:49.577Z,6.47
2023-03-27T15:34:56.800Z,1.42
2023-03-27T15:40:07.332Z,6.03
2023-03-27T15:45:12.539Z,2.53
2023-03-27T15:50:21.041Z,1.48
2023-03-27T15:55:38.003Z,4.45
2023-03-27T16:00:46.361Z,3.05
2023-03-27T16:05:47.181Z,0.93
2023-03-27T16:10:49.052Z,5.30
2023-03-27T16:15:58.966Z,3.80
2023-03-27T16:21:17.308Z,1.95
2023-03-27T16:26:22.482Z,5.82
2023-03-27T16:31:24.524Z,2.70
2023-03-27T16:36:30.622Z,4.35
2023-03-27T16:41:32.543Z,2.95
2023-03-27T16:46:35.093Z,4.20
2023-03-27T16:56:36.759Z,2.67
2023-03-27T17:01:38.890Z,9.50
2023-03-27T17:06:40.497Z,3.88
2023-03-27T17:11:42.346Z,3.13
2023-03-27T17:16:44.981Z,2.95
2023-03-27T17:21:45.710Z,6.68
2023-03-27T17:26:46.759Z,3.50
2023-03-27T17:31:48.833Z,3.75
2023-03-27T17:36:54.550Z,2.70
2023-03-27T17:41:55.524Z,2.65
2023-03-27T17:46:57.726Z,0.90
2023-03-27T17:51:58.444Z,1.83
2023-03-27T17:56:59.178Z,3.85
2023-03-27T18:02:01.500Z,2.13
2023-03-27T18:07:02.401Z,9.57
2023-03-27T18:12:05.831Z,5.15
2023-03-27T18:17:08.027Z,2.58
2023-03-27T18:22:08.836Z,1.80
2023-03-27T18:27:09.615Z,2.20
2023-03-27T18:32:11.996Z,4.28
2023-03-27T18:37:12.928Z,4.25
2023-03-27T18:42:13.694Z,6.65
2023-03-27T18:47:15.751Z,5.07
2023-03-27T18:52:16.982Z,5.93
2023-03-27T18:57:19.944Z,4.47
2023-03-27T19:02:22.659Z,3.40
2023-03-27T19:07:23.446Z,2.78
2023-03-27T19:12:24.121Z,5.35
2023-03-27T19:18:04.841Z,7.22
2023-03-27T19:23:27.110Z,4.90
2023-03-27T19:28:27.795Z,2.22
2023-03-27T19:33:29.838Z,3.03
2023-03-27T19:38:30.581Z,2.72
2023-03-27T19:43:31.329Z,2.03
2023-03-27T19:48:33.661Z,2.70
2023-03-27T19:53:35.755Z,2.53
2023-03-27T19:58:36.564Z,3.63
2023-03-27T20:03:40.210Z,3.90
2023-03-27T20:08:41.164Z,3.42
2023-03-27T20:13:55.583Z,3.45
2023-03-27T20:19:04.478Z,4.40
2023-03-27T20:24:06.795Z,4.47
2023-03-27T20:29:16.549Z,2.53
2023-03-27T20:34:22.408Z,4.25
2023-03-27T20:39:23.675Z,4.50
2023-03-27T20:44:34.873Z,2.65
2023-03-27T20:49:41.262Z,4.45
2023-03-27T20:54:42.814Z,3.00
2023-03-27T20:59:47.538Z,4.60
2023-03-27T21:04:50.262Z,4.25
2023-03-27T21:09:52.924Z,1.58
2023-03-27T21:14:53.621Z,1.92
2023-03-27T21:19:55.661Z,3.67
2023-03-27T21:24:56.362Z,1.30
2023-03-27T21:29:57.026Z,3.47
2023-03-27T21:34:59.066Z,2.42
2023-03-27T21:39:59.945Z,3.53
2023-03-27T21:45:00.792Z,3.95
2023-03-27T21:50:02.842Z,2.58
2023-03-27T21:55:03.867Z,5.68
2023-03-27T22:00:05.278Z,5.43
2023-03-27T22:05:14.750Z,4.55
2023-03-27T22:10:16.589Z,2.75
2023-03-27T22:15:17.308Z,2.13
2023-03-27T22:20:19.666Z,3.47
2023-03-27T22:25:20.493Z,4.63
2023-03-27T22:30:21.260Z,3.70
2023-03-27T22:35:23.373Z,1.75
2023-03-27T22:40:24.150Z,6.22
2023-03-27T22:45:24.832Z,3.22
2023-03-27T22:50:26.832Z,1.70
2023-03-27T22:55:27.557Z,5.35
2023-03-27T23:00:28.320Z,8.02
2023-03-27T23:05:30.361Z,10.48
2023-03-27T23:10:31.063Z,6.93
2023-03-27T23:15:31.854Z,3.55
2023-03-27T23:20:33.934Z,4.32
2023-03-27T23:25:34.599Z,2.60
2023-03-27T23:30:35.522Z,8.57
2023-03-27T23:35:37.584Z,11.05
2023-03-27T23:40:38.843Z,6.55
2023-03-27T23:45:39.712Z,6.75
2023-03-27T23:50:41.819Z,7.45
2023-03-27T23:55:42.512Z,5.18
